Time;durP1;ratioP1;P1;durP2;ratioP2;P2;SDS_P1;SDS_P2;PMS_P1;PMS_P2;Temp;Humidity;BMP_temperature;BMP_pressure;BME280_temperature;BME280_humidity;BME280_pressure;Samples;Min_cycle;Max_cycle;Signal;HPM_P1;HPM_P2
2022/03/16 00:02:06;;;;;;;9.07;4.37;;;9.70;99.90;;;;;;5087546;28;20737;-79
2022/03/16 00:04:32;;;;;;;6.27;3.47;;;9.70;99.90;;;;;;5076126;28;20551;-80
2022/03/16 00:07:00;;;;;;;6.13;3.90;;;9.60;99.90;;;;;;5067282;28;20662;-79
2022/03/16 00:09:27;;;;;;;6.17;4.17;;;9.60;99.90;;;;;;5067742;28;20647;-80
2022/03/16 00:11:54;;;;;;;8.57;3.90;;;9.60;99.90;;;;;;5086457;28;20293;-80
2022/03/16 00:14:20;;;;;;;5.10;4.03;;;9.50;99.90;;;;;;5087969;28;20227;-86
2022/03/16 00:16:47;;;;;;;7.53;3.93;;;9.60;99.90;;;;;;5089649;28;20566;-87
2022/03/16 00:19:14;;;;;;;9.77;4.60;;;9.50;99.90;;;;;;5089568;28;20207;-87
2022/03/16 00:21:40;;;;;;;10.43;4.27;;;9.50;99.90;;;;;;5071145;28;20207;-86
2022/03/16 00:24:09;;;;;;;7.90;4.43;;;9.50;99.90;;;;;;5068902;28;20196;-83
2022/03/16 00:26:36;;;;;;;5.90;3.97;;;9.50;99.90;;;;;;5077778;28;20199;-82
2022/03/16 00:29:03;;;;;;;9.10;4.70;;;9.50;99.90;;;;;;5091518;28;20214;-82
2022/03/16 00:31:29;;;;;;;5.40;4.33;;;9.50;99.90;;;;;;5091235;28;20718;-83
2022/03/16 00:33:56;;;;;;;7.13;4.33;;;9.50;99.90;;;;;;5091549;28;20234;-82
2022/03/16 00:36:23;;;;;;;7.27;4.90;;;9.40;99.90;;;;;;5091250;28;20214;-78
2022/03/16 00:38:50;;;;;;;6.23;4.13;;;9.40;99.90;;;;;;5091254;28;20207;-78
2022/03/16 00:41:18;;;;;;;8.17;4.87;;;9.40;99.90;;;;;;5090963;28;20918;-78
2022/03/16 00:43:45;;;;;;;8.50;4.40;;;9.40;99.90;;;;;;5091073;28;20261;-78
2022/03/16 00:46:15;;;;;;;10.13;4.80;;;9.30;99.90;;;;;;5087787;28;20510;-78
2022/03/16 00:48:41;;;;;;;7.13;4.57;;;9.30;99.90;;;;;;5090847;28;20688;-81
2022/03/16 00:51:14;;;;;;;6.63;4.47;;;9.30;99.90;;;;;;5090725;28;20210;-82
2022/03/16 00:53:42;;;;;;;7.43;4.70;;;9.30;99.90;;;;;;5075012;28;20237;-81
2022/03/16 00:56:15;;;;;;;7.20;4.57;;;9.20;99.90;;;;;;5070714;28;20210;-81
2022/03/16 00:58:43;;;;;;;7.57;5.00;;;9.20;99.90;;;;;;5070510;28;20665;-80
2022/03/16 01:01:12;;;;;;;7.43;4.53;;;9.20;99.90;;;;;;5070465;28;20211;-81
2022/03/16 01:03:40;;;;;;;8.27;4.90;;;9.10;99.90;;;;;;5070539;28;20212;-80
2022/03/16 01:06:15;;;;;;;7.73;5.10;;;9.10;99.90;;;;;;5071947;28;20284;-81
2022/03/16 01:08:42;;;;;;;7.63;4.53;;;9.10;99.90;;;;;;5090778;28;20575;-80
2022/03/16 01:11:12;;;;;;;11.63;4.93;;;9.10;99.90;;;;;;5090500;28;20249;-81
2022/03/16 01:13:39;;;;;;;6.90;4.40;;;9.00;99.90;;;;;;5090373;28;20600;-81
2022/03/16 01:16:16;;;;;;;8.00;4.40;;;9.00;99.90;;;;;;5073777;28;20212;-81
2022/03/16 01:18:43;;;;;;;8.63;4.87;;;8.90;99.90;;;;;;5070443;28;20268;-81
2022/03/16 01:21:13;;;;;;;8.13;5.13;;;8.90;99.90;;;;;;5083622;28;20217;-80
2022/03/16 01:23:39;;;;;;;8.10;5.00;;;9.00;99.90;;;;;;5083080;28;20238;-81
2022/03/16 01:26:12;;;;;;;6.67;4.60;;;9.00;99.90;;;;;;5090107;28;20561;-81
2022/03/16 01:28:39;;;;;;;7.93;4.70;;;8.90;99.90;;;;;;5090302;28;20209;-81
2022/03/16 01:31:18;;;;;;;7.63;4.50;;;8.90;99.90;;;;;;5090105;28;20567;-81
2022/03/16 01:33:45;;;;;;;6.57;4.77;;;8.90;99.90;;;;;;5090356;28;20262;-81
2022/03/16 01:36:15;;;;;;;6.93;4.97;;;8.80;99.90;;;;;;5089084;28;20202;-82
2022/03/16 01:38:41;;;;;;;6.27;4.97;;;8.80;99.90;;;;;;5090239;28;20269;-81
2022/03/16 01:41:15;;;;;;;8.20;5.07;;;8.80;99.90;;;;;;5090099;28;20210;-81
2022/03/16 01:43:41;;;;;;;8.77;4.93;;;8.80;99.90;;;;;;5090119;28;20630;-82
2022/03/16 01:46:15;;;;;;;7.10;4.87;;;8.80;99.90;;;;;;5089929;28;20207;-81
2022/03/16 01:48:42;;;;;;;8.77;5.23;;;8.70;99.90;;;;;;5077424;28;20795;-81
2022/03/16 01:51:15;;;;;;;8.80;5.10;;;8.70;99.90;;;;;;5069603;28;20249;-80
2022/03/16 01:53:42;;;;;;;7.13;5.03;;;8.60;99.90;;;;;;5069290;28;20281;-80
2022/03/16 01:56:16;;;;;;;8.00;5.00;;;8.60;99.90;;;;;;5069493;28;20215;-81
2022/03/16 01:58:43;;;;;;;7.47;5.00;;;8.60;99.90;;;;;;5069351;28;20327;-81
2022/03/16 02:01:14;;;;;;;6.90;5.17;;;8.50;99.90;;;;;;5068943;28;20229;-80
2022/03/16 02:03:43;;;;;;;9.60;5.30;;;8.40;99.90;;;;;;5069427;28;20210;-81
2022/03/16 02:06:13;;;;;;;8.37;4.70;;;8.40;99.90;;;;;;5069325;28;20214;-84
2022/03/16 02:08:40;;;;;;;6.37;5.10;;;8.40;99.90;;;;;;5069876;28;20211;-84
2022/03/16 02:11:14;;;;;;;7.43;4.37;;;8.40;99.90;;;;;;5069335;28;20199;-84
2022/03/16 02:13:40;;;;;;;9.50;5.07;;;8.40;99.90;;;;;;5069186;28;20272;-84
2022/03/16 02:16:13;;;;;;;8.97;4.90;;;8.30;99.90;;;;;;5085302;28;20218;-83
2022/03/16 02:18:39;;;;;;;7.43;4.50;;;8.30;99.90;;;;;;5081659;28;20211;-83
2022/03/16 02:21:21;;;;;;;5.73;4.63;;;8.20;99.90;;;;;;5075873;28;20229;-82
2022/03/16 02:23:49;;;;;;;11.20;4.73;;;8.30;99.90;;;;;;5068870;28;20243;-83
2022/03/16 02:26:16;;;;;;;11.40;5.07;;;8.30;99.90;;;;;;5068960;28;20199;-83
2022/03/16 02:28:43;;;;;;;7.07;4.87;;;8.20;99.90;;;;;;5068940;28;20264;-83
2022/03/16 02:31:14;;;;;;;8.97;5.00;;;8.20;99.90;;;;;;5068657;28;20207;-83
2022/03/16 02:33:41;;;;;;;12.60;5.33;;;8.20;99.90;;;;;;5079799;28;20230;-80
2022/03/16 02:36:14;;;;;;;8.97;4.60;;;8.20;99.90;;;;;;5089197;28;20207;-79
2022/03/16 02:38:41;;;;;;;6.40;4.30;;;8.10;99.90;;;;;;5074420;28;20211;-79
2022/03/16 02:41:18;;;;;;;6.50;4.20;;;8.10;99.90;;;;;;5068634;28;20219;-86
2022/03/16 02:43:45;;;;;;;8.93;4.77;;;8.10;99.90;;;;;;5070399;28;20199;-86
2022/03/16 02:46:14;;;;;;;6.40;4.30;;;8.00;99.90;;;;;;5070171;28;20210;-82
2022/03/16 02:48:41;;;;;;;8.23;4.60;;;7.90;99.90;;;;;;5069431;28;20203;-86
2022/03/16 02:51:14;;;;;;;8.90;5.03;;;7.90;99.90;;;;;;5070259;28;20207;-86
2022/03/16 02:53:41;;;;;;;7.57;4.90;;;7.80;99.90;;;;;;5069802;28;20227;-83
2022/03/16 02:56:14;;;;;;;5.53;4.97;;;7.70;99.90;;;;;;5069043;28;20265;-84
2022/03/16 02:58:42;;;;;;;7.63;4.67;;;7.70;99.90;;;;;;5069125;28;20294;-84
2022/03/16 03:01:13;;;;;;;6.90;4.47;;;7.70;99.90;;;;;;5068692;28;20204;-84
2022/03/16 03:03:39;;;;;;;5.37;4.77;;;7.70;99.90;;;;;;5068923;28;20218;-83
2022/03/16 03:06:15;;;;;;;8.20;5.20;;;7.70;99.90;;;;;;5068831;28;20260;-83
2022/03/16 03:08:44;;;;;;;12.50;5.20;;;7.80;99.90;;;;;;5069454;28;20233;-84
2022/03/16 03:11:14;;;;;;;6.83;5.13;;;7.80;99.90;;;;;;5068584;28;20203;-84
2022/03/16 03:13:42;;;;;;;7.00;4.33;;;7.80;99.90;;;;;;5068471;28;20227;-83
2022/03/16 03:16:11;;;;;;;12.50;6.43;;;7.80;99.90;;;;;;5071769;28;20208;-83
2022/03/16 03:18:38;;;;;;;9.87;5.90;;;7.80;99.90;;;;;;5068484;28;20199;-83
2022/03/16 03:21:14;;;;;;;9.97;5.07;;;7.80;99.90;;;;;;5068303;28;20553;-85
2022/03/16 03:23:41;;;;;;;6.13;5.17;;;7.80;99.90;;;;;;5069033;28;20239;-85
2022/03/16 03:26:13;;;;;;;9.77;5.07;;;7.80;99.90;;;;;;5069004;28;20605;-87
2022/03/16 03:28:42;;;;;;;10.80;5.40;;;7.70;99.90;;;;;;5069326;28;20211;-86
2022/03/16 03:31:18;;;;;;;12.00;5.20;;;7.50;99.90;;;;;;5069038;28;20249;-85
2022/03/16 03:33:45;;;;;;;10.83;5.60;;;7.40;99.90;;;;;;5073923;28;20303;-85
2022/03/16 03:36:14;;;;;;;9.13;5.07;;;7.40;99.90;;;;;;5089220;28;20203;-86
2022/03/16 03:38:41;;;;;;;9.47;4.63;;;7.40;99.90;;;;;;5086908;28;20207;-85
2022/03/16 03:41:11;;;;;;;6.90;4.50;;;7.40;99.90;;;;;;5069076;28;20211;-86
2022/03/16 03:43:37;;;;;;;7.67;5.20;;;7.40;99.90;;;;;;5069429;28;20643;-86
2022/03/16 03:46:20;;;;;;;9.93;5.07;;;7.30;99.90;;;;;;5068178;28;20256;-82
2022/03/16 03:48:47;;;;;;;8.73;5.47;;;7.30;99.90;;;;;;5067079;28;20658;-81
2022/03/16 03:51:15;;;;;;;8.70;5.03;;;7.30;99.90;;;;;;5068171;28;20204;-81
2022/03/16 03:53:42;;;;;;;10.80;5.10;;;7.20;99.90;;;;;;5067432;28;21031;-81
2022/03/16 03:56:16;;;;;;;7.93;4.83;;;7.20;99.90;;;;;;5068940;28;20257;-86
2022/03/16 03:58:42;;;;;;;11.47;5.37;;;7.20;99.90;;;;;;5069450;28;20293;-87
2022/03/16 04:01:18;;;;;;;7.27;4.97;;;7.10;99.90;;;;;;5072474;28;20538;-86
2022/03/16 04:03:47;;;;;;;7.37;5.50;;;7.10;99.90;;;;;;5072094;28;20689;-79
2022/03/16 04:06:14;;;;;;;6.40;4.63;;;7.10;99.90;;;;;;5075176;28;20273;-82
2022/03/16 04:08:42;;;;;;;9.73;5.90;;;7.10;99.90;;;;;;5079679;28;20249;-74
2022/03/16 04:11:13;;;;;;;5.80;4.47;;;7.10;99.90;;;;;;5078630;28;20208;-80
2022/03/16 04:13:40;;;;;;;7.00;4.93;;;7.10;99.90;;;;;;5081123;28;20229;-80
2022/03/16 04:16:13;;;;;;;9.03;5.50;;;7.10;99.90;;;;;;5078712;28;20473;-80
2022/03/16 04:18:39;;;;;;;9.03;5.37;;;7.10;99.90;;;;;;5067718;28;20208;-79
2022/03/16 04:21:17;;;;;;;8.43;5.00;;;7.10;99.90;;;;;;5080443;28;20233;-81
2022/03/16 04:23:43;;;;;;;12.67;5.37;;;7.00;99.90;;;;;;5087218;28;20287;-80
2022/03/16 04:26:16;;;;;;;7.60;4.90;;;7.00;99.90;;;;;;5087327;28;20214;-81
2022/03/16 04:28:43;;;;;;;10.83;5.17;;;7.10;99.90;;;;;;5087615;28;20626;-81
2022/03/16 04:31:12;;;;;;;6.37;4.80;;;7.00;99.90;;;;;;5086944;28;20757;-80
2022/03/16 04:33:39;;;;;;;6.07;4.93;;;7.00;99.90;;;;;;5087197;28;20624;-80
2022/03/16 04:36:16;;;;;;;7.03;5.07;;;7.00;99.90;;;;;;5087123;28;20217;-80
2022/03/16 04:38:43;;;;;;;6.60;5.13;;;7.00;99.90;;;;;;5087059;28;20210;-80
2022/03/16 04:41:15;;;;;;;10.47;5.90;;;6.90;99.90;;;;;;5085535;28;20587;-82
2022/03/16 04:43:42;;;;;;;12.93;6.13;;;6.90;99.90;;;;;;5077794;28;20677;-80
2022/03/16 04:46:15;;;;;;;7.87;5.47;;;6.90;99.90;;;;;;5075062;28;20214;-80
2022/03/16 04:48:42;;;;;;;6.47;5.20;;;6.80;99.90;;;;;;5086572;28;20252;-80
2022/03/16 04:51:13;;;;;;;10.30;6.47;;;6.80;99.90;;;;;;5087090;28;20299;-80
2022/03/16 04:53:41;;;;;;;7.20;4.70;;;6.70;99.90;;;;;;5071985;28;20207;-82
2022/03/16 04:56:16;;;;;;;7.90;5.43;;;6.70;99.90;;;;;;5066862;28;20212;-80
2022/03/16 04:58:43;;;;;;;10.07;5.40;;;6.70;99.90;;;;;;5080400;28;20203;-81
2022/03/16 05:01:22;;;;;;;13.23;5.70;;;6.60;99.90;;;;;;5072650;28;20215;-80
2022/03/16 05:03:49;;;;;;;13.17;6.00;;;6.60;99.90;;;;;;5089692;28;20248;-79
2022/03/16 05:06:19;;;;;;;10.57;5.93;;;6.60;99.90;;;;;;5089629;28;20264;-82
2022/03/16 05:08:47;;;;;;;9.13;5.27;;;6.60;99.90;;;;;;5080543;28;20208;-80
2022/03/16 05:11:15;;;;;;;6.63;5.53;;;6.50;99.90;;;;;;5081209;28;20210;-80
2022/03/16 05:13:41;;;;;;;9.50;5.27;;;6.50;99.90;;;;;;5078947;28;20196;-79
2022/03/16 05:16:20;;;;;;;9.83;6.07;;;6.50;99.90;;;;;;5081951;28;20208;-80
2022/03/16 05:18:47;;;;;;;8.47;5.23;;;6.50;99.90;;;;;;5079511;28;21023;-80
2022/03/16 05:21:17;;;;;;;11.27;5.87;;;6.50;99.90;;;;;;5080366;28;20280;-80
2022/03/16 05:23:44;;;;;;;10.53;5.13;;;6.50;99.90;;;;;;5077379;28;20232;-80
2022/03/16 05:26:15;;;;;;;8.23;5.40;;;6.50;99.90;;;;;;5079447;28;20205;-80
2022/03/16 05:28:42;;;;;;;8.73;5.13;;;6.50;99.90;;;;;;5068770;28;20203;-81
2022/03/16 05:31:08;;;;;;;8.47;5.43;;;6.50;99.90;;;;;;5068248;28;20200;-80
2022/03/16 05:33:35;;;;;;;9.53;6.20;;;6.50;99.90;;;;;;5074167;28;20203;-79
2022/03/16 05:36:09;;;;;;;10.00;5.90;;;6.40;99.90;;;;;;5078376;28;20246;-79
2022/03/16 05:38:36;;;;;;;12.70;5.77;;;6.40;99.90;;;;;;5080505;28;20278;-81
2022/03/16 05:41:11;;;;;;;10.80;6.50;;;6.30;99.90;;;;;;5078484;28;20206;-80
2022/03/16 05:43:39;;;;;;;11.10;6.00;;;6.40;99.90;;;;;;5079707;28;20619;-80
2022/03/16 05:46:11;;;;;;;9.83;5.93;;;6.30;99.90;;;;;;5078885;28;20918;-79
2022/03/16 05:48:38;;;;;;;9.40;5.67;;;6.40;99.90;;;;;;5077249;28;20667;-79
2022/03/16 05:51:09;;;;;;;9.30;5.37;;;6.40;99.90;;;;;;5078540;28;20204;-80
2022/03/16 05:53:36;;;;;;;9.97;6.23;;;6.40;99.90;;;;;;5078593;28;20199;-80
2022/03/16 05:56:08;;;;;;;10.60;5.83;;;6.40;99.90;;;;;;5076276;28;20264;-80
2022/03/16 05:58:35;;;;;;;8.90;5.50;;;6.40;99.90;;;;;;5076729;28;20245;-79
2022/03/16 06:01:09;;;;;;;10.00;5.93;;;6.30;99.90;;;;;;5077405;28;20700;-79
2022/03/16 06:03:35;;;;;;;9.87;5.77;;;6.40;99.90;;;;;;5077537;28;20294;-80
2022/03/16 06:06:08;;;;;;;9.17;6.17;;;6.40;99.90;;;;;;5077036;28;20212;-80
2022/03/16 06:08:34;;;;;;;11.00;5.87;;;6.40;99.90;;;;;;5076193;28;20195;-79
2022/03/16 06:11:08;;;;;;;14.00;6.47;;;6.40;99.90;;;;;;5080835;28;20607;-79
2022/03/16 06:13:35;;;;;;;10.57;6.07;;;6.40;99.90;;;;;;5080132;28;20191;-79
2022/03/16 06:16:14;;;;;;;13.67;6.60;;;6.40;99.90;;;;;;5079960;28;20383;-79
2022/03/16 06:18:41;;;;;;;9.90;6.93;;;6.50;99.90;;;;;;5079461;28;20546;-79
2022/03/16 06:21:08;;;;;;;10.60;6.80;;;6.50;99.90;;;;;;5074714;28;20199;-79
2022/03/16 06:23:36;;;;;;;8.77;5.97;;;6.50;99.90;;;;;;5077470;28;20242;-79
2022/03/16 06:26:09;;;;;;;11.57;6.33;;;6.50;99.90;;;;;;5076918;28;20211;-80
2022/03/16 06:28:35;;;;;;;9.27;6.90;;;6.60;99.90;;;;;;5082715;28;20206;-80
2022/03/16 06:31:09;;;;;;;10.13;7.10;;;6.60;99.90;;;;;;5072362;28;20770;-80
2022/03/16 06:33:37;;;;;;;12.10;6.60;;;6.60;99.90;;;;;;5076379;28;20247;-80
2022/03/16 06:36:10;;;;;;;9.53;6.87;;;6.70;99.90;;;;;;5079343;28;20300;-80
2022/03/16 06:38:37;;;;;;;8.80;6.53;;;6.70;99.90;;;;;;5083940;28;20276;-79
2022/03/16 06:41:06;;;;;;;13.37;7.40;;;6.80;99.90;;;;;;5070374;28;20261;-81
2022/03/16 06:43:33;;;;;;;11.53;7.10;;;6.80;99.90;;;;;;5078915;28;20225;-80
2022/03/16 06:46:07;;;;;;;11.43;7.63;;;6.90;99.90;;;;;;5079786;28;20263;-80
2022/03/16 06:48:33;;;;;;;14.33;7.67;;;6.90;99.90;;;;;;5076700;28;20188;-80
2022/03/16 06:51:01;;;;;;;12.07;7.83;;;6.90;99.90;;;;;;5075794;28;20684;-80
2022/03/16 06:53:28;;;;;;;12.73;7.17;;;7.00;99.90;;;;;;5076417;28;20260;-81
2022/03/16 06:55:55;;;;;;;16.27;7.30;;;7.10;99.90;;;;;;5078173;28;20250;-80
2022/03/16 06:58:24;;;;;;;10.23;6.80;;;6.90;99.90;;;;;;5074521;28;20199;-80
2022/03/16 07:00:53;;;;;;;13.27;7.57;;;7.10;99.90;;;;;;5076057;28;20252;-80
2022/03/16 07:03:20;;;;;;;13.17;7.93;;;7.20;99.90;;;;;;5077938;28;20263;-80
2022/03/16 07:05:46;;;;;;;15.20;7.63;;;7.30;99.90;;;;;;5078003;28;20245;-80
2022/03/16 07:08:15;;;;;;;11.70;7.00;;;7.40;99.90;;;;;;5075191;28;20280;-80
2022/03/16 07:10:44;;;;;;;12.77;7.77;;;7.50;99.90;;;;;;5075732;28;20264;-80
2022/03/16 07:13:11;;;;;;;13.10;7.10;;;7.60;99.90;;;;;;5081114;28;20206;-80
2022/03/16 07:15:39;;;;;;;15.87;7.63;;;7.60;99.90;;;;;;5082035;28;20231;-80
2022/03/16 07:18:06;;;;;;;11.97;7.23;;;7.70;99.90;;;;;;5075691;28;20589;-80
2022/03/16 07:20:33;;;;;;;11.37;7.03;;;7.80;99.90;;;;;;5078565;28;20202;-80
2022/03/16 07:23:05;;;;;;;12.73;7.33;;;7.80;99.90;;;;;;5069786;28;20272;-80
2022/03/16 07:25:33;;;;;;;10.73;7.07;;;7.90;99.90;;;;;;5073648;28;20252;-80
2022/03/16 07:27:59;;;;;;;12.27;7.17;;;7.90;99.90;;;;;;5076627;28;20199;-80
2022/03/16 07:30:26;;;;;;;12.90;7.37;;;7.90;99.90;;;;;;5076683;28;20203;-80
2022/03/16 07:32:53;;;;;;;18.63;8.47;;;8.00;99.90;;;;;;5075846;28;20192;-80
2022/03/16 07:35:24;;;;;;;17.63;8.57;;;8.10;99.90;;;;;;5079425;28;20727;-80
2022/03/16 07:37:51;;;;;;;16.47;8.07;;;8.10;99.90;;;;;;5081871;28;20937;-80
2022/03/16 07:40:17;;;;;;;13.67;7.97;;;8.10;99.90;;;;;;5078424;28;20275;-80
2022/03/16 07:42:47;;;;;;;11.43;7.50;;;8.10;99.90;;;;;;5079708;28;20280;-80
2022/03/16 07:45:15;;;;;;;12.70;7.80;;;8.20;99.90;;;;;;5082048;28;20728;-81
2022/03/16 07:47:42;;;;;;;14.47;7.70;;;8.30;99.90;;;;;;5079730;28;20291;-80
2022/03/16 07:50:09;;;;;;;12.70;7.70;;;8.40;99.90;;;;;;5079774;28;20195;-80
2022/03/16 07:52:36;;;;;;;9.27;7.20;;;8.40;99.90;;;;;;5076773;28;20199;-81
2022/03/16 07:55:04;;;;;;;12.97;8.60;;;8.50;99.90;;;;;;5079356;28;20218;-80
2022/03/16 07:57:31;;;;;;;14.50;7.53;;;8.60;99.90;;;;;;5081754;28;20207;-80
2022/03/16 07:59:58;;;;;;;14.03;7.97;;;8.60;99.90;;;;;;5076505;28;20203;-79
2022/03/16 08:02:27;;;;;;;14.67;7.17;;;8.70;99.90;;;;;;5076089;28;20199;-79
2022/03/16 08:04:57;;;;;;;13.47;8.03;;;8.80;99.90;;;;;;5091446;28;20226;-80
2022/03/16 08:07:24;;;;;;;15.47;8.63;;;8.80;99.90;;;;;;5090877;28;20693;-81
2022/03/16 08:09:51;;;;;;;11.53;7.07;;;8.90;99.90;;;;;;5074022;28;20211;-80
2022/03/16 08:12:18;;;;;;;11.23;6.83;;;9.00;99.90;;;;;;5081657;28;20195;-80
2022/03/16 08:14:44;;;;;;;12.87;7.40;;;9.10;99.90;;;;;;5077632;28;20203;-81
2022/03/16 08:17:12;;;;;;;11.20;7.27;;;9.10;99.90;;;;;;5082248;28;20627;-80
2022/03/16 08:19:39;;;;;;;9.33;6.80;;;9.10;99.90;;;;;;5081245;28;20202;-80
2022/03/16 08:22:06;;;;;;;10.83;6.53;;;9.20;99.90;;;;;;5074824;28;20239;-80
2022/03/16 08:24:32;;;;;;;11.70;7.07;;;9.20;99.90;;;;;;5085816;28;20198;-80
2022/03/16 08:26:59;;;;;;;11.73;6.77;;;9.30;99.90;;;;;;5070483;28;20253;-81
2022/03/16 08:29:25;;;;;;;12.77;7.10;;;9.30;99.90;;;;;;5069865;28;20739;-80
2022/03/16 08:31:57;;;;;;;13.53;7.07;;;9.40;99.90;;;;;;5081671;28;20206;-80
2022/03/16 08:34:25;;;;;;;11.37;6.27;;;9.40;99.90;;;;;;5084962;28;20222;-80
2022/03/16 08:36:52;;;;;;;10.07;6.33;;;9.40;99.90;;;;;;5087256;28;20239;-80
2022/03/16 08:39:18;;;;;;;15.87;6.90;;;9.40;99.90;;;;;;5085256;28;20355;-79
2022/03/16 08:41:45;;;;;;;28.00;8.27;;;9.50;99.90;;;;;;5075688;28;20276;-80
2022/03/16 08:44:12;;;;;;;13.30;6.80;;;9.50;99.90;;;;;;5080936;28;20199;-80
2022/03/16 08:46:38;;;;;;;9.07;6.40;;;9.60;99.90;;;;;;5081555;28;20202;-83
2022/03/16 08:49:05;;;;;;;12.33;6.90;;;9.70;99.90;;;;;;5072340;28;20248;-80
2022/03/16 08:51:33;;;;;;;9.13;6.77;;;9.70;99.90;;;;;;5075337;28;20199;-80
2022/03/16 08:54:00;;;;;;;11.37;6.87;;;9.80;99.90;;;;;;5072793;28;20727;-79
2022/03/16 08:56:26;;;;;;;11.70;6.93;;;9.80;99.90;;;;;;5078376;28;20222;-80
2022/03/16 08:58:53;;;;;;;9.63;6.40;;;9.80;99.90;;;;;;5075495;28;20253;-80
2022/03/16 09:01:19;;;;;;;8.23;6.03;;;9.90;99.90;;;;;;5073205;28;20207;-80
2022/03/16 09:03:46;;;;;;;12.50;7.00;;;10.00;99.90;;;;;;5074954;28;20612;-80
2022/03/16 09:06:13;;;;;;;11.03;7.17;;;10.00;99.90;;;;;;5077117;28;20198;-80
2022/03/16 09:08:41;;;;;;;12.13;6.57;;;10.00;99.90;;;;;;5080388;28;20248;-80
2022/03/16 09:11:10;;;;;;;10.53;5.60;;;10.00;99.90;;;;;;5071993;28;20269;-80
2022/03/16 09:13:37;;;;;;;9.03;6.60;;;10.10;99.90;;;;;;5082780;28;20191;-80
2022/03/16 09:16:10;;;;;;;15.37;7.83;;;10.10;99.90;;;;;;5079369;28;20702;-80
2022/03/16 09:18:36;;;;;;;10.07;6.77;;;10.20;99.90;;;;;;5074809;28;20264;-79
2022/03/16 09:21:07;;;;;;;8.80;6.27;;;10.20;99.90;;;;;;5078648;28;20203;-79
2022/03/16 09:23:34;;;;;;;10.03;6.60;;;10.20;99.90;;;;;;5080139;28;20231;-80
2022/03/16 09:26:10;;;;;;;7.00;6.03;;;10.20;99.90;;;;;;5077185;28;20210;-80
2022/03/16 09:28:36;;;;;;;12.73;6.80;;;10.30;99.90;;;;;;5077517;28;20198;-80
2022/03/16 09:31:09;;;;;;;9.57;6.83;;;10.30;99.90;;;;;;5077366;28;20615;-80
2022/03/16 09:33:36;;;;;;;9.83;6.60;;;10.40;99.90;;;;;;5079100;28;20196;-80
2022/03/16 09:36:08;;;;;;;9.17;5.97;;;10.30;99.90;;;;;;5077551;28;20235;-79
2022/03/16 09:38:36;;;;;;;7.53;5.40;;;10.40;99.90;;;;;;5083383;28;20195;-80
2022/03/16 09:41:10;;;;;;;9.03;6.30;;;10.50;99.90;;;;;;5077795;28;20247;-80
2022/03/16 09:43:37;;;;;;;8.70;6.10;;;10.40;99.90;;;;;;5078812;28;20196;-80
2022/03/16 09:46:15;;;;;;;10.73;5.80;;;10.60;99.90;;;;;;5076691;28;20669;-80
2022/03/16 09:48:42;;;;;;;8.50;6.10;;;10.70;99.90;;;;;;5079664;28;20204;-80
2022/03/16 09:51:12;;;;;;;8.90;5.73;;;10.80;99.90;;;;;;5074479;28;20256;-80
2022/03/16 09:53:39;;;;;;;9.90;6.03;;;10.80;99.90;;;;;;5079711;28;20229;-80
2022/03/16 09:56:11;;;;;;;12.50;6.40;;;10.90;99.90;;;;;;5074496;28;20223;-80
2022/03/16 09:58:38;;;;;;;9.70;6.30;;;11.00;99.90;;;;;;5076387;28;20199;-80
2022/03/16 10:01:08;;;;;;;7.90;5.57;;;11.00;99.90;;;;;;5076246;28;20252;-80
2022/03/16 10:03:36;;;;;;;11.37;7.10;;;11.00;99.90;;;;;;5079426;28;20685;-81
2022/03/16 10:06:09;;;;;;;13.07;7.57;;;11.20;99.90;;;;;;5080296;28;20253;-81
2022/03/16 10:08:37;;;;;;;10.63;7.37;;;11.30;99.90;;;;;;5075348;28;20198;-80
2022/03/16 10:13:58;;;;;;;9.90;6.37;;;11.50;99.90;;;;;;5076232;28;20264;-82
2022/03/16 10:17:43;;;;;;;11.80;7.43;;;11.60;99.90;;;;;;5078949;28;20330;-80
2022/03/16 10:19:12;;;;;;;12.57;6.77;;;11.70;99.90;;;;;;5078930;28;20207;-80
2022/03/16 10:21:39;;;;;;;12.47;7.53;;;11.80;99.90;;;;;;5077481;28;20252;-78
2022/03/16 10:24:07;;;;;;;9.43;6.57;;;11.90;99.90;;;;;;5081467;28;20248;-80
2022/03/16 10:26:35;;;;;;;9.77;6.77;;;11.90;99.90;;;;;;5080608;28;20198;-79
2022/03/16 10:29:04;;;;;;;12.47;7.20;;;12.10;99.90;;;;;;5082876;28;20217;-80
2022/03/16 10:31:31;;;;;;;10.60;6.37;;;12.10;99.90;;;;;;5079741;28;20211;-80
2022/03/16 10:33:58;;;;;;;11.77;6.73;;;12.20;99.90;;;;;;5076310;28;20225;-80
2022/03/16 10:36:26;;;;;;;12.83;6.47;;;12.30;99.90;;;;;;5077623;28;20254;-79
2022/03/16 10:38:54;;;;;;;12.13;6.47;;;12.30;99.90;;;;;;5077562;28;20200;-80
2022/03/16 10:46:55;;;;;;;10.33;6.50;;;12.70;99.90;;;;;;5079462;28;20332;-81
2022/03/16 10:49:23;;;;;;;10.30;6.80;;;12.80;99.90;;;;;;5076693;28;20737;-80
2022/03/16 10:52:02;;;;;;;9.03;6.33;;;12.80;99.90;;;;;;5079414;28;20195;-80
2022/03/16 10:54:29;;;;;;;12.13;7.77;;;12.80;99.90;;;;;;5079982;28;20202;-80
2022/03/16 10:56:58;;;;;;;10.17;7.57;;;12.80;99.90;;;;;;5078371;28;20293;-80
2022/03/16 10:59:27;;;;;;;21.93;11.77;;;12.90;99.90;;;;;;5078559;28;21120;-80
2022/03/16 11:02:01;;;;;;;18.40;10.47;;;12.90;99.90;;;;;;5075648;28;20200;-79
2022/03/16 11:04:29;;;;;;;13.30;7.73;;;13.10;99.90;;;;;;5079597;28;20244;-80
2022/03/16 11:06:57;;;;;;;14.13;7.30;;;13.10;99.90;;;;;;5078280;28;20617;-80
2022/03/16 11:09:25;;;;;;;11.57;6.70;;;13.20;99.90;;;;;;5078856;28;20255;-79
2022/03/16 11:14:38;;;;;;;10.23;6.13;;;13.30;99.90;;;;;;5079738;28;20201;-79
2022/03/16 11:17:05;;;;;;;9.40;5.73;;;13.50;99.90;;;;;;5079410;28;20230;-80
2022/03/16 11:19:32;;;;;;;8.17;6.03;;;13.70;99.90;;;;;;5078320;28;20210;-80
2022/03/16 11:22:05;;;;;;;7.97;6.07;;;13.60;99.90;;;;;;5078518;28;20222;-78
2022/03/16 11:24:35;;;;;;;11.30;6.60;;;13.70;99.90;;;;;;5075789;28;20626;-79
2022/03/16 11:27:26;;;;;;;9.03;5.83;;;13.70;99.90;;;;;;5078381;28;20207;-79
2022/03/16 11:30:15;;;;;;;7.90;6.17;;;13.80;99.90;;;;;;5066404;28;20719;-79
2022/03/16 11:32:44;;;;;;;11.57;6.60;;;14.00;99.90;;;;;;5067623;28;20199;-80
2022/03/16 11:35:15;;;;;;;10.10;6.47;;;14.10;99.90;;;;;;5067604;28;20208;-77
2022/03/16 11:37:44;;;;;;;9.67;6.63;;;14.20;99.90;;;;;;5072435;28;20241;-79
2022/03/16 11:40:13;;;;;;;10.50;7.17;;;14.20;99.90;;;;;;5079275;28;20273;-80
2022/03/16 11:42:44;;;;;;;8.37;5.17;;;14.20;99.90;;;;;;5087845;28;20206;-79
2022/03/16 11:45:37;;;;;;;8.97;6.20;;;14.30;99.90;;;;;;5087792;28;20211;-80
2022/03/16 11:48:41;;;;;;;12.10;6.13;;;14.40;99.90;;;;;;5087865;28;20214;-79
2022/03/16 11:51:25;;;;;;;7.73;5.20;;;14.40;99.90;;;;;;5087318;28;20290;-79
2022/03/16 11:54:39;;;;;;;10.77;6.33;;;14.60;99.90;;;;;;5087473;28;20234;-79
2022/03/16 11:57:06;;;;;;;9.20;5.70;;;14.80;99.90;;;;;;5087344;28;20236;-79
2022/03/16 11:59:40;;;;;;;8.13;6.07;;;14.90;99.90;;;;;;5087645;28;20269;-79
2022/03/16 12:02:30;;;;;;;10.83;6.10;;;14.90;99.90;;;;;;5087897;28;20198;-78
2022/03/16 12:05:02;;;;;;;8.63;5.53;;;15.00;99.90;;;;;;5078420;28;20207;-78
2022/03/16 12:07:35;;;;;;;9.57;5.90;;;15.00;99.90;;;;;;5075336;28;20315;-78
2022/03/16 12:10:10;;;;;;;7.70;4.77;;;15.00;99.90;;;;;;5066761;28;20204;-78
2022/03/16 12:12:54;;;;;;;8.90;5.63;;;15.00;99.90;;;;;;5067153;28;20256;-78
2022/03/16 12:15:32;;;;;;;8.93;5.83;;;15.30;99.90;;;;;;5069892;28;20299;-78
2022/03/16 12:18:30;;;;;;;8.57;5.10;;;15.40;99.90;;;;;;5067241;28;20223;-78
2022/03/16 12:21:03;;;;;;;7.03;4.60;;;15.40;99.90;;;;;;5074655;28;20242;-78
2022/03/16 12:23:58;;;;;;;8.67;4.63;;;15.40;99.90;;;;;;5080788;28;20291;-78
2022/03/16 12:28:55;;;;;;;6.03;4.97;;;15.40;99.90;;;;;;5079922;28;20241;-78
2022/03/16 12:29:24;;;;;;;8.13;5.17;;;15.40;99.90;;;;;;5076598;28;20195;-77
2022/03/16 12:31:54;;;;;;;5.17;4.43;;;15.40;99.90;;;;;;5080362;28;20252;-76
2022/03/16 12:34:23;;;;;;;7.30;4.73;;;15.50;99.90;;;;;;5081402;28;20275;-77
2022/03/16 12:36:50;;;;;;;8.30;4.83;;;15.50;99.90;;;;;;5083330;28;20267;-78
2022/03/16 12:39:17;;;;;;;7.87;4.70;;;15.50;99.90;;;;;;5079174;28;20264;-78
2022/03/16 12:44:28;;;;;;;8.20;5.10;;;15.80;99.90;;;;;;5079417;28;20244;-77
2022/03/16 12:47:01;;;;;;;8.27;5.93;;;15.70;99.90;;;;;;5079397;28;20618;-78
2022/03/16 12:49:32;;;;;;;7.03;5.57;;;15.90;99.90;;;;;;5082918;28;20244;-78
2022/03/16 12:52:01;;;;;;;7.17;5.50;;;16.10;99.90;;;;;;5078854;28;20210;-78
2022/03/16 12:54:30;;;;;;;7.53;5.00;;;16.10;99.90;;;;;;5080127;28;20666;-78
2022/03/16 12:57:01;;;;;;;12.17;6.00;;;16.10;99.90;;;;;;5078119;28;20233;-78
2022/03/16 12:59:31;;;;;;;9.50;5.90;;;16.10;99.90;;;;;;5079091;28;20195;-78
2022/03/16 13:01:59;;;;;;;10.17;5.63;;;16.20;99.90;;;;;;5081844;28;20286;-78
2022/03/16 13:04:27;;;;;;;8.97;6.13;;;16.30;99.90;;;;;;5074341;28;20207;-79
2022/03/16 13:06:57;;;;;;;9.40;6.10;;;16.40;99.90;;;;;;5075751;28;20204;-78
2022/03/16 13:09:31;;;;;;;9.10;6.17;;;16.50;99.90;;;;;;5078741;28;20211;-78
2022/03/16 13:12:03;;;;;;;7.23;5.80;;;16.60;99.90;;;;;;5076711;28;20255;-78
2022/03/16 13:14:31;;;;;;;9.80;6.30;;;16.70;99.90;;;;;;5078877;28;20724;-78
2022/03/16 13:16:58;;;;;;;10.97;7.23;;;16.90;99.90;;;;;;5079365;28;20281;-78
2022/03/16 13:19:27;;;;;;;10.17;7.00;;;16.80;99.90;;;;;;5075715;28;20207;-78